createdAt,value
2018-12-01T00:00:55.070Z,2.30
2018-12-01T00:03:22.408Z,2.30
2018-12-01T00:05:49.774Z,2.40
2018-12-01T00:08:17.217Z,2.40
2018-12-01T00:10:44.581Z,2.40
2018-12-01T00:13:13.099Z,2.40
2018-12-01T00:15:40.453Z,2.40
2018-12-01T00:18:07.842Z,2.40
2018-12-01T00:20:35.984Z,2.40
2018-12-01T00:23:03.395Z,2.40
2018-12-01T00:25:30.844Z,2.40
2018-12-01T00:27:58.347Z,2.40
2018-12-01T00:30:25.983Z,2.40
2018-12-01T00:32:53.999Z,2.50
2018-12-01T00:35:21.606Z,2.40
2018-12-01T00:37:49.112Z,2.50
2018-12-01T00:40:18.060Z,2.40
2018-12-01T00:42:45.578Z,2.40
2018-12-01T00:45:16.220Z,2.50
2018-12-01T00:47:45.225Z,2.40
2018-12-01T00:50:13.108Z,2.40
2018-12-01T00:52:40.493Z,2.50
2018-12-01T00:55:09.421Z,2.50
2018-12-01T00:57:36.785Z,2.50
2018-12-01T01:00:05.349Z,2.50
2018-12-01T01:02:34.164Z,2.50
2018-12-01T01:05:01.535Z,2.50
2018-12-01T01:07:28.913Z,2.40
2018-12-01T01:09:56.272Z,2.40
2018-12-01T01:12:23.697Z,2.50
2018-12-01T01:14:51.523Z,2.50
2018-12-01T01:17:18.983Z,2.50
2018-12-01T01:19:46.312Z,2.40
2018-12-01T01:22:13.745Z,2.50
2018-12-01T01:24:41.197Z,2.40
2018-12-01T01:27:08.688Z,2.40
2018-12-01T01:29:36.153Z,2.50
2018-12-01T01:32:03.594Z,2.40
2018-12-01T01:34:31.019Z,2.40
2018-12-01T01:36:58.509Z,2.40
2018-12-01T01:39:25.940Z,2.40
2018-12-01T01:41:53.401Z,2.40
2018-12-01T01:44:20.867Z,2.40
2018-12-01T01:46:48.322Z,2.40
2018-12-01T01:49:15.757Z,2.40
2018-12-01T01:51:43.112Z,2.40
2018-12-01T01:54:10.484Z,2.50
2018-12-01T01:56:37.942Z,2.50
2018-12-01T01:59:05.417Z,2.50
2018-12-01T02:01:32.860Z,2.50
2018-12-01T02:06:42.240Z,2.50
2018-12-01T02:09:09.689Z,2.50
2018-12-01T02:11:37.116Z,2.50
2018-12-01T02:14:04.589Z,2.50
2018-12-01T02:16:31.963Z,2.50
2018-12-01T02:18:59.307Z,2.50
2018-12-01T02:21:26.685Z,2.40
2018-12-01T02:23:54.101Z,2.50
2018-12-01T02:26:21.457Z,2.50
2018-12-01T02:28:48.805Z,2.50
2018-12-01T02:31:16.161Z,2.50
2018-12-01T02:33:43.513Z,2.50
2018-12-01T02:36:10.873Z,2.50
2018-12-01T02:38:38.209Z,2.50
2018-12-01T02:41:05.623Z,2.50
2018-12-01T02:43:33.046Z,2.50
2018-12-01T02:46:06.029Z,2.50
2018-12-01T02:48:33.433Z,2.50
2018-12-01T02:51:00.837Z,2.50
2018-12-01T02:53:28.214Z,2.50
2018-12-01T02:55:55.556Z,2.50
2018-12-01T02:58:22.918Z,2.50
2018-12-01T03:00:50.381Z,2.50
2018-12-01T03:03:17.749Z,2.50
2018-12-01T03:05:45.085Z,2.50
2018-12-01T03:08:12.542Z,2.60
2018-12-01T03:10:39.990Z,2.50
2018-12-01T03:13:07.355Z,2.60
2018-12-01T03:15:34.800Z,2.60
2018-12-01T03:18:02.168Z,2.60
2018-12-01T03:20:29.621Z,2.60
2018-12-01T03:22:56.968Z,2.60
2018-12-01T03:25:24.346Z,2.60
2018-12-01T03:27:53.123Z,2.70
2018-12-01T03:30:22.093Z,2.60
2018-12-01T03:32:49.828Z,2.70
2018-12-01T03:35:17.262Z,2.60
2018-12-01T03:37:45.857Z,2.60
2018-12-01T03:40:13.193Z,2.60
2018-12-01T03:42:40.657Z,2.70
2018-12-01T03:45:09.609Z,2.70
2018-12-01T03:47:36.967Z,2.70
2018-12-01T03:50:04.813Z,2.70
2018-12-01T03:52:32.225Z,2.70
2018-12-01T03:54:59.653Z,2.60
2018-12-01T03:57:27.028Z,2.60
2018-12-01T03:59:54.579Z,2.60
2018-12-01T04:02:22.386Z,2.70
2018-12-01T04:04:49.790Z,2.70
2018-12-01T04:07:17.158Z,2.60
2018-12-01T04:09:44.499Z,2.60
2018-12-01T04:12:11.856Z,2.60
2018-12-01T04:14:39.200Z,2.60
2018-12-01T04:17:06.564Z,2.60
2018-12-01T04:19:33.937Z,2.60
2018-12-01T04:22:01.276Z,2.60
2018-12-01T04:24:28.641Z,2.70
2018-12-01T04:26:55.982Z,2.70
2018-12-01T04:29:23.360Z,2.70
2018-12-01T04:31:50.723Z,2.70
2018-12-01T04:34:21.598Z,2.70
2018-12-01T04:36:49.013Z,2.70
2018-12-01T04:39:16.526Z,2.70
2018-12-01T04:41:43.865Z,2.70
2018-12-01T04:44:11.278Z,2.70
2018-12-01T04:46:38.726Z,2.70
2018-12-01T04:49:06.078Z,2.80
2018-12-01T04:51:33.421Z,2.80
2018-12-01T04:54:00.798Z,2.70
2018-12-01T04:56:28.248Z,2.80
2018-12-01T04:58:55.630Z,2.80
2018-12-01T05:01:23.060Z,2.80
2018-12-01T05:03:50.638Z,2.70
2018-12-01T05:06:18.453Z,2.70
2018-12-01T05:08:45.809Z,2.70
2018-12-01T05:11:13.192Z,2.70
2018-12-01T05:13:40.549Z,2.70
2018-12-01T05:16:07.899Z,2.70
2018-12-01T05:18:35.268Z,2.70
2018-12-01T05:21:02.716Z,2.70
2018-12-01T05:23:30.094Z,2.80
2018-12-01T05:25:57.441Z,2.70
2018-12-01T05:28:24.805Z,2.70
2018-12-01T05:30:52.170Z,2.80
2018-12-01T05:33:19.512Z,2.80
2018-12-01T05:35:46.858Z,2.80
2018-12-01T05:38:14.217Z,2.80
2018-12-01T05:40:41.670Z,2.70
2018-12-01T05:43:09.016Z,2.70
2018-12-01T05:45:36.385Z,2.80
2018-12-01T05:48:03.846Z,2.80
2018-12-01T05:50:31.289Z,2.80
2018-12-01T05:52:58.671Z,2.80
2018-12-01T05:55:26.117Z,2.80
2018-12-01T05:57:53.582Z,2.80
2018-12-01T06:00:21.173Z,2.80
2018-12-01T06:02:48.585Z,2.80
2018-12-01T06:05:15.946Z,2.80
2018-12-01T06:07:43.430Z,2.80
2018-12-01T06:13:47.442Z,2.80
2018-12-01T06:16:17.064Z,2.90
2018-12-01T06:25:22.502Z,2.90
2018-12-01T06:28:06.290Z,2.90
2018-12-01T06:40:05.387Z,3.00
2018-12-01T06:42:36.849Z,3.00
2018-12-01T06:47:55.333Z,3.10
2018-12-01T06:50:58.656Z,3.10
2018-12-01T06:59:03.589Z,3.20
2018-12-01T07:06:51.906Z,3.20
2018-12-01T07:09:23.386Z,3.20
2018-12-01T07:11:58.800Z,3.20
2018-12-01T07:14:30.557Z,3.20
2018-12-01T07:16:59.885Z,3.30
2018-12-01T07:26:04.704Z,3.30
2018-12-01T07:28:32.029Z,3.40
2018-12-01T07:31:09.250Z,3.40
2018-12-01T07:33:41.201Z,3.40
2018-12-01T07:42:22.220Z,3.60
2018-12-01T07:44:54.269Z,3.60
2018-12-01T07:50:10.381Z,3.70
2018-12-01T07:52:57.025Z,3.70
2018-12-01T07:57:42.601Z,3.70
2018-12-01T08:02:57.248Z,3.80
2018-12-01T08:05:25.516Z,3.80
2018-12-01T08:13:50.371Z,4.00
2018-12-01T08:16:17.729Z,4.10
2018-12-01T08:21:38.990Z,4.20
2018-12-01T08:26:56.938Z,4.30
2018-12-01T08:29:24.439Z,4.30
2018-12-01T08:31:52.018Z,4.40
2018-12-01T08:34:19.470Z,4.40
2018-12-01T08:36:47.069Z,4.50
2018-12-01T08:39:14.605Z,4.60
2018-12-01T08:41:42.179Z,4.60
2018-12-01T08:44:09.716Z,4.60
2018-12-01T08:46:37.223Z,4.60
2018-12-01T08:49:04.935Z,4.60
2018-12-01T08:51:32.603Z,4.60
2018-12-01T08:54:00.160Z,4.60
2018-12-01T08:56:27.795Z,4.50
2018-12-01T08:58:55.279Z,4.50
2018-12-01T09:01:22.909Z,4.50
2018-12-01T09:03:50.400Z,4.50
2018-12-01T09:06:17.960Z,4.50
2018-12-01T09:08:57.960Z,4.50
2018-12-01T09:14:13.541Z,4.70
2018-12-01T09:22:13.463Z,5.10
2018-12-01T09:24:44.448Z,5.10
2018-12-01T09:27:22.763Z,5.10
2018-12-01T09:41:07.089Z,5.60
2018-12-01T09:43:34.591Z,5.70
2018-12-01T09:46:21.224Z,5.70
2018-12-01T09:48:54.455Z,5.70
2018-12-01T09:51:21.944Z,5.70
2018-12-01T09:53:49.431Z,5.70
2018-12-01T09:56:16.955Z,5.60
2018-12-01T09:58:48.291Z,5.60
2018-12-01T10:01:15.839Z,5.60
2018-12-01T10:03:43.339Z,5.60
2018-12-01T10:06:12.350Z,5.50
2018-12-01T10:11:30.652Z,5.50
2018-12-01T10:18:30.970Z,5.70
2018-12-01T10:20:58.627Z,5.80
2018-12-01T10:23:26.263Z,5.90
2018-12-01T10:25:55.144Z,5.90
2018-12-01T10:28:22.607Z,6.10
2018-12-01T10:30:50.122Z,6.10
2018-12-01T10:36:20.024Z,6.40
2018-12-01T10:38:53.253Z,6.50
2018-12-01T10:41:26.276Z,6.40
2018-12-01T10:43:57.030Z,6.50
2018-12-01T10:46:31.694Z,6.50
2018-12-01T10:51:46.728Z,6.50
2018-12-01T10:54:16.148Z,6.60
2018-12-01T10:56:43.526Z,6.70
2018-12-01T10:59:14.423Z,6.80
2018-12-01T11:01:47.637Z,6.80
2018-12-01T11:04:20.965Z,6.80
2018-12-01T11:21:07.987Z,6.90
2018-12-01T11:23:40.616Z,6.90
2018-12-01T11:26:09.081Z,6.90
2018-12-01T11:28:36.854Z,6.80
2018-12-01T11:31:04.495Z,6.80
2018-12-01T11:33:34.005Z,6.70
2018-12-01T11:38:38.147Z,6.70
2018-12-01T11:41:06.420Z,6.80
2018-12-01T11:43:35.354Z,6.90
2018-12-01T11:46:04.804Z,7.00
2018-12-01T11:48:32.677Z,7.10
2018-12-01T11:51:00.251Z,7.30
2018-12-01T11:53:28.215Z,7.40
2018-12-01T11:55:55.610Z,7.50
2018-12-01T11:58:23.100Z,7.50
2018-12-01T12:00:50.816Z,7.60
2018-12-01T12:03:18.325Z,7.60
2018-12-01T12:05:45.735Z,7.70
2018-12-01T12:08:15.183Z,7.70
2018-12-01T12:10:42.601Z,7.60
2018-12-01T12:13:10.062Z,7.70
2018-12-01T12:15:37.521Z,7.60
2018-12-01T12:18:04.985Z,7.60
2018-12-01T12:20:32.453Z,7.70
2018-12-01T12:22:59.947Z,7.80
2018-12-01T12:25:27.370Z,7.80
2018-12-01T12:27:54.842Z,7.80
2018-12-01T12:30:25.949Z,7.80
2018-12-01T12:32:50.154Z,7.80
2018-12-01T12:35:17.776Z,7.90
2018-12-01T12:37:45.170Z,8.10
2018-12-01T12:40:14.184Z,8.20
2018-12-01T12:42:41.618Z,8.20
2018-12-01T12:45:09.612Z,8.20
2018-12-01T12:47:37.076Z,8.20
2018-12-01T12:50:06.157Z,8.20
2018-12-01T12:52:33.581Z,8.20
2018-12-01T12:55:01.041Z,8.20
2018-12-01T12:57:28.534Z,8.20
2018-12-01T12:59:55.970Z,8.30
2018-12-01T13:02:23.437Z,8.30
2018-12-01T13:04:51.063Z,8.40
2018-12-01T13:07:18.617Z,8.50
2018-12-01T13:09:46.013Z,8.50
2018-12-01T13:12:13.610Z,8.50
2018-12-01T13:14:41.069Z,8.50
2018-12-01T13:17:08.478Z,8.30
2018-12-01T13:19:35.937Z,8.20
2018-12-01T13:22:03.390Z,8.20
2018-12-01T13:24:31.328Z,8.20
2018-12-01T13:26:58.800Z,8.20
2018-12-01T13:29:26.292Z,8.10
2018-12-01T13:31:54.599Z,8.20
2018-12-01T13:34:21.206Z,8.20
2018-12-01T13:36:48.634Z,8.20
2018-12-01T13:39:16.683Z,8.20
2018-12-01T13:41:44.074Z,8.20
2018-12-01T13:44:11.554Z,8.20
2018-12-01T13:46:39.703Z,8.10
2018-12-01T13:49:07.205Z,8.00
2018-12-01T13:51:34.618Z,7.90
2018-12-01T13:54:02.150Z,7.80
2018-12-01T13:56:29.678Z,7.60
2018-12-01T13:58:57.105Z,7.60
2018-12-01T14:01:24.875Z,7.50
2018-12-01T14:03:52.503Z,7.40
2018-12-01T14:06:20.102Z,7.40
2018-12-01T14:08:47.542Z,7.30
2018-12-01T14:11:14.993Z,7.30
2018-12-01T14:13:42.474Z,7.30
2018-12-01T14:16:09.839Z,7.20
2018-12-01T14:18:37.289Z,7.20
2018-12-01T14:21:10.406Z,7.10
2018-12-01T14:23:37.830Z,7.10
2018-12-01T14:26:05.260Z,7.00
2018-12-01T14:28:32.684Z,6.90
2018-12-01T14:31:00.162Z,6.80
2018-12-01T14:33:27.881Z,6.80
2018-12-01T14:35:55.664Z,6.70
2018-12-01T14:38:23.089Z,6.60
2018-12-01T14:40:50.586Z,6.50
2018-12-01T14:43:17.996Z,6.50
2018-12-01T14:45:46.088Z,6.40
2018-12-01T14:48:13.539Z,6.40
2018-12-01T14:50:40.912Z,6.40
2018-12-01T14:53:09.102Z,6.30
2018-12-01T14:55:36.526Z,6.30
2018-12-01T14:58:04.292Z,6.30
2018-12-01T15:00:31.761Z,6.30
2018-12-01T15:02:59.255Z,6.20
2018-12-01T15:05:27.815Z,6.10
2018-12-01T15:07:55.329Z,6.10
2018-12-01T15:10:23.372Z,6.00
2018-12-01T15:12:50.941Z,6.00
2018-12-01T15:15:19.132Z,5.90
2018-12-01T15:17:46.736Z,5.90
2018-12-01T15:20:16.448Z,5.80
2018-12-01T15:22:44.439Z,5.80
2018-12-01T15:25:14.377Z,5.80
2018-12-01T15:27:42.822Z,5.70
2018-12-01T15:30:13.970Z,5.70
2018-12-01T15:32:41.738Z,5.60
2018-12-01T15:35:10.108Z,5.60
2018-12-01T15:37:37.530Z,5.60
2018-12-01T15:40:07.096Z,5.60
2018-12-01T15:42:34.500Z,5.60
2018-12-01T15:45:01.945Z,5.50
2018-12-01T15:47:29.402Z,5.50
2018-12-01T15:49:56.900Z,5.50
2018-12-01T15:52:24.314Z,5.40
2018-12-01T15:54:51.785Z,5.40
2018-12-01T15:57:19.222Z,5.40
2018-12-01T15:59:47.124Z,5.30
2018-12-01T16:02:14.552Z,5.40
2018-12-01T16:04:42.030Z,5.30
2018-12-01T16:07:09.553Z,5.30
2018-12-01T16:09:37.002Z,5.30
2018-12-01T16:12:04.386Z,5.40
2018-12-01T16:14:31.842Z,5.40
2018-12-01T16:16:59.425Z,5.50
2018-12-01T16:19:26.869Z,5.40
2018-12-01T16:21:54.307Z,5.50
2018-12-01T16:24:21.686Z,5.50
2018-12-01T16:26:49.141Z,5.50
2018-12-01T16:29:16.592Z,5.50
2018-12-01T16:31:44.054Z,5.50
2018-12-01T16:34:11.513Z,5.60
2018-12-01T16:36:38.970Z,5.60
2018-12-01T16:39:08.201Z,5.70
2018-12-01T16:41:35.761Z,5.80
2018-12-01T16:44:03.163Z,5.80
2018-12-01T16:46:30.580Z,5.90
2018-12-01T16:48:58.034Z,5.90
2018-12-01T16:51:25.505Z,6.00
2018-12-01T16:53:53.242Z,6.00
2018-12-01T16:56:20.681Z,6.10
2018-12-01T16:58:48.133Z,6.20
2018-12-01T17:01:15.597Z,6.20
2018-12-01T17:03:43.038Z,6.20
2018-12-01T17:06:11.780Z,6.20
2018-12-01T17:08:39.229Z,6.20
2018-12-01T17:11:07.304Z,6.20
2018-12-01T17:13:36.121Z,6.20
2018-12-01T17:16:03.546Z,6.20
2018-12-01T17:18:30.966Z,6.20
2018-12-01T17:20:58.426Z,6.20
2018-12-01T17:23:25.865Z,6.20
2018-12-01T17:25:53.242Z,6.20
2018-12-01T17:28:20.692Z,6.30
2018-12-01T17:30:48.406Z,6.30
2018-12-01T17:33:15.853Z,6.20
2018-12-01T17:35:43.281Z,6.20
2018-12-01T17:38:12.300Z,6.20
2018-12-01T17:40:43.677Z,6.10
2018-12-01T17:43:12.546Z,6.10
2018-12-01T17:45:39.961Z,6.10
2018-12-01T17:48:07.557Z,6.00
2018-12-01T17:50:35.104Z,5.90
2018-12-01T17:53:02.598Z,5.90
2018-12-01T17:55:30.425Z,5.80
2018-12-01T17:57:57.891Z,5.80
2018-12-01T18:00:27.725Z,5.70
2018-12-01T18:02:55.892Z,5.60
2018-12-01T18:05:24.466Z,5.60
2018-12-01T18:07:52.067Z,5.50
2018-12-01T18:10:19.357Z,5.50
2018-12-01T18:12:46.839Z,5.50
2018-12-01T18:15:14.946Z,5.40
2018-12-01T18:17:43.304Z,5.40
2018-12-01T18:20:16.661Z,5.40
2018-12-01T18:22:44.719Z,5.30
2018-12-01T18:25:12.053Z,5.30
2018-12-01T18:27:39.466Z,5.30
2018-12-01T18:30:09.582Z,5.30
2018-12-01T18:32:37.025Z,5.20
2018-12-01T18:35:04.752Z,5.30
2018-12-01T18:37:32.158Z,5.20
2018-12-01T18:39:59.638Z,5.30
2018-12-01T18:42:27.114Z,5.30
2018-12-01T18:44:54.500Z,5.30
2018-12-01T18:47:22.210Z,5.30
2018-12-01T18:49:49.593Z,5.20
2018-12-01T18:52:16.993Z,5.20
2018-12-01T18:54:44.445Z,5.20
2018-12-01T18:57:11.949Z,5.20
2018-12-01T18:59:39.490Z,5.20
2018-12-01T19:02:07.194Z,5.20
2018-12-01T19:04:34.605Z,5.10
2018-12-01T19:07:02.051Z,5.20
2018-12-01T19:09:29.503Z,5.20
2018-12-01T19:11:56.885Z,5.10
2018-12-01T19:14:24.357Z,5.10
2018-12-01T19:16:52.013Z,5.10
2018-12-01T19:19:19.487Z,5.10
2018-12-01T19:21:46.913Z,5.10
2018-12-01T19:24:14.353Z,5.00
2018-12-01T19:26:41.762Z,5.00
2018-12-01T19:29:09.144Z,5.00
2018-12-01T19:31:36.559Z,5.00
2018-12-01T19:34:03.972Z,5.00
2018-12-01T19:36:31.440Z,5.00
2018-12-01T19:38:58.887Z,5.00
2018-12-01T19:41:26.878Z,5.00
2018-12-01T19:43:54.333Z,5.00
2018-12-01T19:46:21.766Z,5.10
2018-12-01T19:48:49.137Z,5.10
2018-12-01T19:51:16.576Z,5.10
2018-12-01T19:53:43.957Z,5.10
2018-12-01T19:56:11.433Z,5.10
2018-12-01T19:58:38.865Z,5.10
2018-12-01T20:01:06.347Z,5.10
2018-12-01T20:03:33.809Z,5.10
2018-12-01T20:06:01.220Z,5.10
2018-12-01T20:08:28.619Z,5.10
2018-12-01T20:10:57.719Z,5.10
2018-12-01T20:13:34.993Z,5.00
2018-12-01T20:16:04.117Z,5.00
2018-12-01T20:18:31.561Z,5.00
2018-12-01T20:20:58.989Z,5.00
2018-12-01T20:23:26.604Z,4.90
2018-12-01T20:25:54.146Z,4.90
2018-12-01T20:28:21.569Z,4.80
2018-12-01T20:30:49.353Z,4.80
2018-12-01T20:33:17.025Z,4.80
2018-12-01T20:35:48.996Z,4.80
2018-12-01T20:38:18.778Z,4.80
2018-12-01T20:40:46.213Z,4.80
2018-12-01T20:43:13.589Z,4.90
2018-12-01T20:45:41.236Z,5.00
2018-12-01T20:48:08.713Z,5.00
2018-12-01T20:50:36.153Z,5.00
2018-12-01T20:53:03.618Z,5.10
2018-12-01T20:55:31.333Z,5.00
2018-12-01T20:57:59.612Z,5.00
2018-12-01T21:00:27.038Z,4.90
2018-12-01T21:02:54.469Z,4.90
2018-12-01T21:05:22.449Z,4.80
2018-12-01T21:07:50.053Z,4.80
2018-12-01T21:10:19.152Z,4.80
2018-12-01T21:12:46.673Z,4.70
2018-12-01T21:15:14.144Z,4.60
2018-12-01T21:17:43.059Z,4.60
2018-12-01T21:20:12.945Z,4.50
2018-12-01T21:22:40.754Z,4.40
2018-12-01T21:25:09.034Z,4.40
2018-12-01T21:27:36.425Z,4.40
2018-12-01T21:30:05.077Z,4.40
2018-12-01T21:32:32.470Z,4.40
2018-12-01T21:34:59.902Z,4.40
2018-12-01T21:37:27.610Z,4.40
2018-12-01T21:39:55.029Z,4.40
2018-12-01T21:42:22.485Z,4.40
2018-12-01T21:44:49.930Z,4.40
2018-12-01T21:47:17.293Z,4.40
2018-12-01T21:49:44.678Z,4.40
2018-12-01T21:52:12.108Z,4.40
2018-12-01T21:54:39.498Z,4.40
2018-12-01T21:57:06.933Z,4.30
2018-12-01T21:59:34.455Z,4.30
2018-12-01T22:02:01.894Z,4.20
2018-12-01T22:04:29.305Z,4.20
2018-12-01T22:06:57.677Z,4.20
2018-12-01T22:09:25.141Z,4.10
2018-12-01T22:11:52.618Z,4.10
2018-12-01T22:14:20.060Z,4.10
2018-12-01T22:16:47.561Z,4.10
2018-12-01T22:19:14.988Z,4.10
2018-12-01T22:21:42.491Z,4.10
2018-12-01T22:24:09.902Z,4.10
2018-12-01T22:26:37.364Z,4.00
2018-12-01T22:29:05.068Z,4.10
2018-12-01T22:31:32.488Z,4.00
2018-12-01T22:33:59.946Z,4.00
2018-12-01T22:36:27.385Z,4.10
2018-12-01T22:38:54.857Z,4.00
2018-12-01T22:41:22.288Z,4.10
2018-12-01T22:43:49.673Z,4.10
2018-12-01T22:46:17.100Z,4.10
2018-12-01T22:48:44.574Z,4.10
2018-12-01T22:51:12.021Z,4.00
2018-12-01T22:53:39.493Z,4.10
2018-12-01T22:56:07.476Z,4.00
2018-12-01T22:58:34.922Z,4.10
2018-12-01T23:01:02.358Z,4.10
2018-12-01T23:03:30.609Z,4.10
2018-12-01T23:05:57.989Z,4.10
2018-12-01T23:08:25.920Z,4.20
2018-12-01T23:10:53.521Z,4.20
2018-12-01T23:13:20.906Z,4.20
2018-12-01T23:15:48.378Z,4.30
2018-12-01T23:18:16.570Z,4.30
2018-12-01T23:20:44.525Z,4.30
2018-12-01T23:23:11.944Z,4.30
2018-12-01T23:25:39.547Z,4.40
2018-12-01T23:28:07.293Z,4.40
2018-12-01T23:30:35.642Z,4.40
2018-12-01T23:33:04.993Z,4.50
2018-12-01T23:35:32.397Z,4.50
2018-12-01T23:37:59.760Z,4.50
2018-12-01T23:40:28.147Z,4.50
2018-12-01T23:42:54.780Z,4.50
2018-12-01T23:45:23.095Z,4.50
2018-12-01T23:47:50.530Z,4.50
2018-12-01T23:50:19.541Z,4.50
2018-12-01T23:52:47.634Z,4.50
2018-12-01T23:55:15.678Z,4.50
2018-12-01T23:57:44.198Z,4.50
